Time;durP1;ratioP1;P1;durP2;ratioP2;P2;SDS_P1;SDS_P2;PMS_P1;PMS_P2;Temp;Humidity;BMP_temperature;BMP_pressure;BME280_temperature;BME280_humidity;BME280_pressure;Samples;Min_cycle;Max_cycle;Signal;HPM_P1;HPM_P2
2021/03/08 00:03:16;;;;;;;75.63;39.53;;;;;;;2.96;52.84;98996.77;251997;1145;115804;-69
2021/03/08 00:08:20;;;;;;;76.43;40.55;;;;;;;2.98;53.25;98986.20;251703;1146;115016;-70
2021/03/08 00:13:25;;;;;;;77.80;40.75;;;;;;;2.95;53.29;98988.92;251908;1146;115946;-70
2021/03/08 00:18:29;;;;;;;73.55;41.10;;;;;;;2.96;53.46;98986.27;251920;1153;115133;-68
2021/03/08 00:23:33;;;;;;;77.10;42.15;;;;;;;2.91;53.46;98982.91;251789;1146;115481;-72
2021/03/08 00:28:37;;;;;;;75.30;41.87;;;;;;;2.93;53.28;98978.47;251865;1152;115615;-70
2021/03/08 00:33:39;;;;;;;70.43;36.33;;;;;;;2.88;53.67;98977.73;251988;1144;115845;-73
2021/03/08 00:38:44;;;;;;;73.60;39.28;;;;;;;2.82;53.56;98988.47;251928;1152;115364;-72
2021/03/08 00:43:47;;;;;;;79.23;42.28;;;;;;;2.78;53.59;98981.56;251967;1146;115232;-69
2021/03/08 00:48:50;;;;;;;73.17;37.37;;;;;;;2.76;53.78;98984.26;251973;1153;114832;-80
2021/03/08 00:53:53;;;;;;;75.65;40.85;;;;;;;2.75;54.08;98977.30;251933;1146;115032;-77
2021/03/08 00:58:59;;;;;;;70.07;36.53;;;;;;;2.74;54.04;99000.97;251284;1151;114871;-73
2021/03/08 01:04:01;;;;;;;69.70;39.15;;;;;;;2.67;54.16;98989.79;251636;1146;115954;-71
2021/03/08 01:09:07;;;;;;;67.13;36.63;;;;;;;2.67;53.98;98979.28;252044;1146;115862;-76
2021/03/08 01:14:12;;;;;;;70.63;37.75;;;;;;;2.67;54.19;98987.16;250882;1146;115286;-73
2021/03/08 01:19:20;;;;;;;71.67;36.83;;;;;;;2.68;54.53;98990.64;252018;1146;174912;-65
2021/03/08 01:24:55;;;;;;;63.20;36.00;;;;;;;2.69;54.28;98984.50;251941;1145;114547;-81
2021/03/08 01:30:19;;;;;;;74.93;37.68;;;;;;;2.69;54.18;98982.73;251877;1147;114768;-72
2021/03/08 01:35:21;;;;;;;68.83;35.43;;;;;;;2.73;54.28;98980.87;251990;1146;115242;-72
2021/03/08 01:40:27;;;;;;;63.40;34.53;;;;;;;2.74;54.25;98978.17;251805;1153;115054;-74
2021/03/08 01:45:29;;;;;;;73.25;36.20;;;;;;;2.75;54.46;98979.03;250835;1147;174102;-73
2021/03/08 01:50:38;;;;;;;58.85;32.65;;;;;;;2.79;54.29;98978.05;250228;1154;114562;-69
2021/03/08 01:55:40;;;;;;;62.23;33.45;;;;;;;2.81;54.76;98970.96;251846;1147;114868;-69
2021/03/08 02:00:43;;;;;;;61.83;32.40;;;;;;;2.79;54.55;98964.92;251807;1146;114985;-67
2021/03/08 02:05:47;;;;;;;59.88;32.58;;;;;;;2.76;54.57;98963.23;251884;1154;115546;-72
2021/03/08 02:10:50;;;;;;;47.10;27.00;;;;;;;2.74;54.56;98953.67;251623;1147;116078;-71
2021/03/08 02:16:03;;;;;;;58.10;32.70;;;;;;;2.73;54.40;98955.45;251646;1146;114780;-69
2021/03/08 02:21:24;;;;;;;53.63;31.45;;;;;;;2.73;54.43;98951.97;252026;1146;114871;-71
2021/03/08 02:26:45;;;;;;;57.65;31.63;;;;;;;2.67;54.66;98952.16;251633;1147;115681;-66
2021/03/08 02:31:50;;;;;;;58.45;33.45;;;;;;;2.65;54.88;98946.08;251730;1147;114802;-66
2021/03/08 02:37:00;;;;;;;59.35;33.85;;;;;;;2.68;54.91;98951.23;251644;1154;117498;-71
2021/03/08 02:42:07;;;;;;;57.47;33.27;;;;;;;2.76;55.19;98957.13;251891;1146;114817;-66
2021/03/08 02:47:12;;;;;;;61.20;34.17;;;;;;;2.75;55.17;98947.50;251858;1154;114617;-71
2021/03/08 02:52:18;;;;;;;56.83;31.13;;;;;;;2.72;55.28;98948.48;250319;1146;114939;-68
2021/03/08 02:57:28;;;;;;;53.30;31.68;;;;;;;2.74;55.16;98956.30;251859;1148;115046;-72
2021/03/08 03:02:30;;;;;;;53.50;31.60;;;;;;;2.74;55.03;98944.02;251806;1148;115119;-67
2021/03/08 03:07:35;;;;;;;50.90;29.50;;;;;;;2.74;54.97;98944.02;251770;1153;115561;-72
2021/03/08 03:12:39;;;;;;;50.20;30.00;;;;;;;2.72;55.49;98943.23;251236;1147;114435;-71
2021/03/08 03:17:44;;;;;;;54.70;30.50;;;;;;;2.68;55.34;98949.46;251700;1149;114649;-71
2021/03/08 03:22:49;;;;;;;53.10;30.40;;;;;;;2.63;55.51;98945.28;251985;1146;114783;-71
2021/03/08 03:27:52;;;;;;;;;;;;;;;2.60;55.48;98949.71;252145;1153;114593;-66
2021/03/08 03:32:56;;;;;;;50.88;29.40;;;;;;;2.57;55.70;98949.80;251955;1153;102236;-67
2021/03/08 03:37:59;;;;;;;50.65;29.15;;;;;;;2.59;55.81;98945.38;251748;1146;114929;-66
2021/03/08 03:43:02;;;;;;;55.00;31.50;;;;;;;2.62;56.32;98946.20;251933;1154;115094;-67
2021/03/08 03:48:05;;;;;;;50.70;30.20;;;;;;;2.62;56.14;98951.45;251823;1147;115347;-71
2021/03/08 03:53:08;;;;;;;53.65;31.25;;;;;;;2.55;56.12;98941.13;251854;1146;115028;-67
2021/03/08 03:58:35;;;;;;;49.40;29.08;;;;;;;2.59;56.54;98945.38;251690;1147;114981;-71
2021/03/08 04:03:55;;;;;;;46.55;24.85;;;;;;;2.56;56.27;98963.00;251837;1147;114772;-71
2021/03/08 04:08:58;;;;;;;46.23;26.03;;;;;;;2.50;56.73;98966.66;251873;1153;114896;-71
2021/03/08 04:14:02;;;;;;;46.83;26.80;;;;;;;2.47;56.57;98961.50;251834;1147;115234;-70
2021/03/08 04:19:07;;;;;;;49.58;27.35;;;;;;;2.43;56.69;98964.28;251935;1146;114782;-73
2021/03/08 04:24:13;;;;;;;49.43;25.30;;;;;;;2.47;56.90;98958.02;251877;1154;115321;-71
2021/03/08 04:29:18;;;;;;;45.40;25.53;;;;;;;2.45;56.53;98958.08;247860;1154;114880;-77
2021/03/08 04:34:20;;;;;;;44.15;25.50;;;;;;;2.46;56.51;98962.42;247893;1154;115093;-74
2021/03/08 04:39:22;;;;;;;51.33;26.97;;;;;;;2.40;56.83;98964.37;251150;1147;114957;-72
2021/03/08 04:44:25;;;;;;;45.60;26.68;;;;;;;2.40;57.03;98964.37;251834;1147;114777;-68
2021/03/08 04:49:28;;;;;;;46.90;26.18;;;;;;;2.43;57.04;98962.51;251832;1146;115130;-67
2021/03/08 04:54:31;;;;;;;45.13;24.15;;;;;;;2.44;56.91;98966.84;251946;1147;115035;-67
2021/03/08 04:59:33;;;;;;;43.77;26.33;;;;;;;2.48;57.26;98963.25;251805;1147;114492;-66
2021/03/08 05:04:39;;;;;;;43.47;23.70;;;;;;;2.44;57.03;98968.61;252025;1148;114868;-71
2021/03/08 05:09:42;;;;;;;48.33;28.28;;;;;;;2.41;56.95;98972.19;250070;1146;115308;-74
2021/03/08 05:14:47;;;;;;;45.20;26.30;;;;;;;2.45;56.81;98976.47;250098;1148;114863;-67
2021/03/08 05:19:51;;;;;;;41.95;25.85;;;;;;;2.45;57.06;98968.59;251546;1146;114979;-73
2021/03/08 05:24:54;;;;;;;41.78;25.20;;;;;;;2.47;56.70;98979.03;251675;1153;115484;-75
2021/03/08 05:29:58;;;;;;;46.18;24.45;;;;;;;2.43;56.82;98980.03;250159;1147;114653;-76
2021/03/08 05:35:02;;;;;;;44.90;26.38;;;;;;;2.43;56.83;98980.03;249260;1146;115159;-72
2021/03/08 05:40:19;;;;;;;44.10;26.10;;;;;;;2.40;57.22;98983.61;248778;1148;114969;-70
2021/03/08 05:45:27;;;;;;;45.05;26.40;;;;;;;2.35;57.44;98993.41;250984;1146;115012;-69
2021/03/08 05:50:56;;;;;;;45.67;26.40;;;;;;;2.40;57.37;99001.98;251595;1147;114959;-68
2021/03/08 05:56:23;;;;;;;45.50;25.60;;;;;;;2.43;57.73;99004.53;251943;1154;114938;-72
2021/03/08 06:01:50;;;;;;;48.08;28.33;;;;;;;2.47;57.66;99000.04;251780;1154;118436;-67
2021/03/08 06:06:53;;;;;;;45.30;24.80;;;;;;;2.47;57.39;99013.17;251606;1147;115152;-67
2021/03/08 06:12:11;;;;;;;49.30;28.60;;;;;;;2.37;57.48;99021.31;251863;1146;114702;-67
2021/03/08 06:17:16;;;;;;;48.57;29.30;;;;;;;2.40;57.76;99025.63;251845;1147;115296;-72
2021/03/08 06:22:20;;;;;;;45.63;27.37;;;;;;;2.37;57.60;99025.71;251430;1153;114808;-72
2021/03/08 06:27:23;;;;;;;42.85;26.05;;;;;;;2.31;57.75;99028.50;251740;1147;114935;-72
2021/03/08 06:32:26;;;;;;;48.67;28.00;;;;;;;2.34;57.95;99038.92;251899;1147;115212;-72
2021/03/08 06:37:30;;;;;;;45.55;26.55;;;;;;;2.33;57.69;99048.57;247062;1146;114884;-70
2021/03/08 06:42:33;;;;;;;46.90;27.90;;;;;;;2.29;58.28;99051.34;251749;1147;115569;-73
2021/03/08 06:47:35;;;;;;;48.75;27.35;;;;;;;2.32;58.70;99067.01;251926;1146;114826;-69
2021/03/08 06:52:40;;;;;;;45.33;28.40;;;;;;;2.33;58.54;99079.23;250254;1154;117444;-69
2021/03/08 06:57:42;;;;;;;48.88;30.43;;;;;;;2.29;58.56;99072.34;251876;1147;114814;-73
2021/03/08 07:02:49;;;;;;;49.80;29.75;;;;;;;2.26;58.89;99082.93;251937;1154;115019;-73
2021/03/08 07:07:57;;;;;;;53.28;30.23;;;;;;;2.32;59.05;99093.27;251787;1147;114758;-68
2021/03/08 07:13:00;;;;;;;52.00;29.83;;;;;;;2.32;58.79;99098.52;248550;1148;115141;-66
2021/03/08 07:18:08;;;;;;;53.00;31.50;;;;;;;2.31;59.25;99104.66;251509;1153;115047;-67
2021/03/08 07:23:22;;;;;;;58.45;33.45;;;;;;;2.33;59.73;99105.48;250830;1153;115299;-66
2021/03/08 07:28:25;;;;;;;53.97;31.13;;;;;;;2.36;59.72;99111.52;251818;1147;114866;-67
2021/03/08 07:33:28;;;;;;;51.50;30.13;;;;;;;2.35;60.02;99111.56;251891;1146;114764;-66
2021/03/08 07:38:33;;;;;;;53.23;33.50;;;;;;;2.38;59.72;99114.11;251883;1148;114994;-66
2021/03/08 07:43:36;;;;;;;51.95;32.30;;;;;;;2.39;60.02;99115.83;251821;1154;115125;-67
2021/03/08 07:48:46;;;;;;;56.95;34.40;;;;;;;2.43;60.05;99120.08;251425;1147;114922;-75
2021/03/08 07:54:02;;;;;;;59.75;35.45;;;;;;;2.47;60.50;99136.61;250987;1146;114781;-73
2021/03/08 07:59:05;;;;;;;54.73;30.58;;;;;;;2.56;60.75;99150.36;251931;1153;114856;-68
2021/03/08 08:04:07;;;;;;;33.87;19.53;;;;;;;2.70;60.63;99141.23;251742;1148;114901;-69
2021/03/08 08:09:11;;;;;;;18.40;11.00;;;;;;;2.84;60.27;99145.17;248877;1154;115034;-72
2021/03/08 08:14:17;;;;;;;9.45;6.08;;;;;;;2.93;59.82;99144.06;250780;1146;116024;-66
2021/03/08 08:19:21;;;;;;;11.05;5.45;;;;;;;2.99;59.77;99148.25;251978;1147;114784;-73
2021/03/08 08:24:26;;;;;;;10.33;5.30;;;;;;;3.06;59.54;99152.45;251960;1146;114478;-66
2021/03/08 08:29:29;;;;;;;10.00;4.65;;;;;;;3.07;58.94;99152.39;251790;1147;114958;-71
2021/03/08 08:34:38;;;;;;;8.78;4.83;;;;;;;3.05;58.87;99143.67;251226;1147;114716;-73
2021/03/08 08:40:03;;;;;;;7.43;4.53;;;;;;;3.08;58.80;99161.98;251689;1154;114687;-72
2021/03/08 08:45:28;;;;;;;7.30;4.75;;;;;;;3.08;58.67;99171.65;251887;1146;114358;-67
2021/03/08 08:50:44;;;;;;;10.40;5.35;;;;;;;3.05;58.60;99169.11;251225;1147;114545;-67
2021/03/08 08:55:47;;;;;;;9.20;6.03;;;;;;;3.08;58.56;99182.17;251918;1154;114657;-68
2021/03/08 09:01:11;;;;;;;9.80;5.65;;;;;;;3.11;58.90;99182.08;251902;1146;114536;-67
2021/03/08 09:06:50;;;;;;;10.78;5.78;;;;;;;3.15;58.80;99188.97;251015;1146;114606;-72
2021/03/08 09:12:00;;;;;;;9.50;5.98;;;;;;;3.19;58.55;99182.70;250939;1148;114552;-71
2021/03/08 09:17:15;;;;;;;10.50;6.20;;;;;;;3.17;58.49;99188.94;251860;1154;114357;-67
2021/03/08 09:22:26;;;;;;;11.85;6.80;;;;;;;3.19;58.61;99187.10;251749;1147;114854;-67
2021/03/08 09:27:34;;;;;;;10.85;7.45;;;;;;;3.23;58.77;99194.02;251595;1154;115014;-68
2021/03/08 09:33:05;;;;;;;12.87;7.70;;;;;;;3.25;59.05;99187.78;251694;1147;114501;-68
2021/03/08 09:38:12;;;;;;;13.03;7.53;;;;;;;3.19;58.95;99197.63;251982;1153;115099;-68
2021/03/08 09:43:20;;;;;;;13.93;8.68;;;;;;;3.17;58.80;99202.94;251722;1147;114896;-67
2021/03/08 09:48:23;;;;;;;14.28;8.98;;;;;;;3.14;58.58;99210.06;251975;1146;114442;-67
2021/03/08 09:53:31;;;;;;;15.63;8.98;;;;;;;3.12;58.90;99219.75;251968;1148;114764;-67
2021/03/08 09:58:34;;;;;;;17.23;11.05;;;;;;;3.20;59.28;99223.03;251724;1154;114646;-73
2021/03/08 10:03:36;;;;;;;10.23;5.90;;;;;;;3.21;58.96;99238.75;250889;1147;115361;-73
2021/03/08 10:08:39;;;;;;;8.53;4.33;;;;;;;3.13;58.73;99239.90;251724;1146;114767;-68
2021/03/08 10:13:41;;;;;;;8.80;4.10;;;;;;;3.15;58.97;99233.66;251873;1147;114429;-72
2021/03/08 10:18:44;;;;;;;8.25;4.25;;;;;;;3.20;58.60;99242.30;251706;1153;114588;-73
2021/03/08 10:23:47;;;;;;;8.73;3.97;;;;;;;3.27;58.21;99248.25;251607;1146;114596;-73
2021/03/08 10:28:51;;;;;;;10.40;4.17;;;;;;;3.45;58.66;99246.84;251882;1153;114233;-73
2021/03/08 10:34:07;;;;;;;8.93;4.10;;;;;;;3.75;58.66;99245.05;251874;1148;115768;-68
2021/03/08 10:39:12;;;;;;;8.05;4.20;;;;;;;3.96;58.33;99246.99;251885;1148;115153;-67
2021/03/08 10:44:21;;;;;;;;;;;;;;;4.21;57.99;99251.45;251781;1147;114986;-67
2021/03/08 10:49:24;;;;;;;9.15;4.20;;;;;;;4.32;57.72;99249.36;251528;1153;101854;-67
2021/03/08 10:54:38;;;;;;;8.30;4.77;;;;;;;4.26;57.22;99249.55;251522;1147;114557;-67
2021/03/08 10:59:54;;;;;;;8.40;5.30;;;;;;;4.16;56.95;99251.63;251323;1148;114788;-69
2021/03/08 11:05:14;;;;;;;12.20;7.10;;;;;;;4.12;57.11;99259.69;251756;1146;114602;-67
2021/03/08 11:10:17;;;;;;;18.43;9.70;;;;;;;4.14;56.92;99255.20;251754;1146;114724;-66
2021/03/08 11:15:22;;;;;;;15.63;9.20;;;;;;;4.13;56.66;99246.45;251431;1147;114894;-71
2021/03/08 11:20:27;;;;;;;15.17;9.37;;;;;;;4.15;56.65;99243.78;250841;1154;114997;-72
2021/03/08 11:25:41;;;;;;;16.83;8.70;;;;;;;4.24;57.36;99248.73;251613;1148;115350;-72
2021/03/08 11:30:46;;;;;;;14.53;8.28;;;;;;;4.58;57.32;99243.18;251803;1153;114566;-71
2021/03/08 11:35:50;;;;;;;;;;;;;;;4.85;56.79;99230.81;251782;1146;115223;-67
2021/03/08 11:40:54;;;;;;;15.00;8.67;;;;;;;4.88;57.01;99243.89;251922;1154;101184;-72
2021/03/08 11:45:56;;;;;;;13.25;8.35;;;;;;;4.85;56.38;99241.36;251233;1148;115195;-67
2021/03/08 11:50:59;;;;;;;7.30;4.95;;;;;;;4.81;55.33;99245.02;252134;1146;114555;-67
2021/03/08 11:56:01;;;;;;;6.30;4.58;;;;;;;4.81;54.85;99255.57;252303;1146;103155;-73
2021/03/08 12:01:04;;;;;;;7.73;4.28;;;;;;;4.77;54.20;99256.59;252729;1153;101947;-68
2021/03/08 12:06:07;;;;;;;4.70;3.33;;;;;;;4.84;53.99;99251.97;252648;1146;101286;-67
2021/03/08 12:11:10;;;;;;;5.93;3.27;;;;;;;5.20;54.23;99247.16;251322;1153;103158;-69
2021/03/08 12:16:13;;;;;;;5.67;2.90;;;;;;;5.84;53.08;99233.25;249451;1146;103092;-76
2021/03/08 12:21:18;;;;;;;4.40;2.45;;;;;;;6.05;52.72;99229.81;252740;1153;101045;-74
2021/03/08 12:26:20;;;;;;;6.73;2.63;;;;;;;6.02;51.16;99240.50;252697;1146;101432;-73
2021/03/08 12:31:22;;;;;;;6.98;3.15;;;;;;;5.95;51.01;99246.95;252706;1152;101268;-74
2021/03/08 12:36:25;;;;;;;5.83;2.88;;;;;;;5.81;50.22;99244.83;252850;1146;101021;-69
2021/03/08 12:41:27;;;;;;;5.37;2.87;;;;;;;5.74;50.08;99250.38;252348;1153;114703;-68
2021/03/08 12:46:29;;;;;;;7.33;2.55;;;;;;;5.79;50.48;99245.80;252439;1146;114838;-75
2021/03/08 12:51:32;;;;;;;5.50;2.50;;;;;;;5.94;49.69;99247.84;252340;1153;113937;-70
2021/03/08 12:56:34;;;;;;;5.18;2.43;;;;;;;5.86;49.27;99244.63;252177;1146;114419;-71
2021/03/08 13:01:37;;;;;;;3.90;2.68;;;;;;;6.12;49.30;99254.20;252153;1153;114268;-76
2021/03/08 13:06:40;;;;;;;5.53;2.30;;;;;;;6.15;49.07;99257.58;251132;1148;114369;-70
2021/03/08 13:11:43;;;;;;;9.48;2.75;;;;;;;6.02;48.25;99258.13;252206;1153;114585;-75
2021/03/08 13:16:45;;;;;;;9.97;2.80;;;;;;;6.39;48.82;99260.14;252173;1146;114699;-71
2021/03/08 13:21:48;;;;;;;6.65;3.00;;;;;;;6.42;47.38;99259.13;252127;1153;114997;-70
2021/03/08 13:26:50;;;;;;;8.73;2.90;;;;;;;6.29;47.55;99270.23;252142;1146;114351;-69
2021/03/08 13:31:52;;;;;;;4.13;2.37;;;;;;;6.18;47.47;99276.85;249356;1153;114460;-70
2021/03/08 13:36:55;;;;;;;5.45;2.70;;;;;;;6.20;47.58;99281.16;252178;1146;114593;-69
2021/03/08 13:42:10;;;;;;;5.23;2.30;;;;;;;6.45;46.69;99274.87;252187;1153;114144;-74
2021/03/08 13:47:12;;;;;;;3.87;2.10;;;;;;;6.42;45.79;99273.23;252153;1147;115308;-74
2021/03/08 13:52:14;;;;;;;5.10;2.10;;;;;;;6.33;45.67;99292.11;251987;1153;114250;-76
2021/03/08 13:57:17;;;;;;;5.03;2.27;;;;;;;6.20;45.55;99283.80;252041;1146;114230;-73
2021/03/08 14:02:20;;;;;;;6.45;2.50;;;;;;;6.12;44.97;99283.27;252192;1153;114091;-73
2021/03/08 14:07:22;;;;;;;5.73;2.70;;;;;;;6.07;45.66;99282.57;252151;1146;114162;-72
2021/03/08 14:12:33;;;;;;;6.55;2.70;;;;;;;6.01;45.41;99282.81;252194;1153;114215;-68
2021/03/08 14:17:35;;;;;;;5.70;2.50;;;;;;;5.87;45.04;99297.38;252172;1145;114422;-69
2021/03/08 14:22:38;;;;;;;5.63;2.05;;;;;;;5.74;45.46;99297.91;252241;1153;114376;-69
2021/03/08 14:27:40;;;;;;;9.37;2.50;;;;;;;5.63;44.90;99295.68;251876;1146;114237;-74
2021/03/08 14:32:42;;;;;;;5.55;2.40;;;;;;;5.55;45.30;99295.98;252039;1154;114319;-73
2021/03/08 14:38:04;;;;;;;13.60;2.80;;;;;;;5.51;45.21;99296.16;250787;1153;114026;-74
2021/03/08 14:43:07;;;;;;;11.95;3.10;;;;;;;5.48;44.58;99298.91;252221;1153;114312;-74
2021/03/08 14:48:10;;;;;;;9.90;3.45;;;;;;;5.41;45.35;99308.83;248766;1148;114264;-75
2021/03/08 14:53:13;;;;;;;13.43;4.50;;;;;;;5.37;45.08;99323.92;249756;1153;114162;-74
2021/03/08 14:58:15;;;;;;;9.30;3.70;;;;;;;5.30;45.26;99322.42;252213;1145;114458;-75
2021/03/08 15:03:17;;;;;;;6.88;2.73;;;;;;;5.27;44.58;99324.31;252329;1153;114439;-72
2021/03/08 15:08:20;;;;;;;6.40;3.37;;;;;;;5.23;44.15;99320.92;252637;1146;101345;-74
2021/03/08 15:13:22;;;;;;;12.17;4.67;;;;;;;5.15;44.48;99322.95;251948;1153;113968;-69
2021/03/08 15:18:25;;;;;;;8.75;3.75;;;;;;;5.10;44.60;99327.55;248198;1145;114519;-69
2021/03/08 15:23:28;;;;;;;8.28;3.58;;;;;;;5.04;44.63;99319.84;252233;1153;114311;-69
2021/03/08 15:28:30;;;;;;;7.53;2.68;;;;;;;4.93;44.37;99333.41;252244;1148;115463;-69
2021/03/08 15:33:32;;;;;;;7.40;3.50;;;;;;;4.87;44.76;99338.88;252233;1153;113898;-69
2021/03/08 15:38:35;;;;;;;10.70;3.00;;;;;;;4.84;44.91;99352.17;252262;1146;114417;-75
2021/03/08 15:43:43;;;;;;;13.00;5.15;;;;;;;4.80;44.72;99346.14;252297;1153;114019;-74
2021/03/08 15:48:46;;;;;;;15.35;7.00;;;;;;;4.76;44.99;99357.70;252260;1147;114010;-74
2021/03/08 15:53:48;;;;;;;17.13;5.90;;;;;;;4.70;44.88;99353.48;251409;1153;114226;-75
2021/03/08 15:58:51;;;;;;;8.87;2.97;;;;;;;4.65;44.44;99358.06;252266;1146;114072;-74
2021/03/08 16:03:53;;;;;;;6.17;2.83;;;;;;;4.63;44.18;99356.38;250833;1148;113967;-69
2021/03/08 16:08:56;;;;;;;11.30;2.90;;;;;;;4.56;43.56;99362.77;252194;1146;113951;-69
2021/03/08 16:14:38;;;;;;;8.53;3.13;;;;;;;4.48;44.12;99363.88;250471;1153;114381;-69
2021/03/08 16:20:04;;;;;;;;;;;;;;;4.36;44.33;99360.77;251745;1147;114363;-71
2021/03/08 16:25:11;;;;;;;9.90;4.07;;;;;;;4.25;44.42;99369.88;252273;1153;101914;-70
2021/03/08 16:30:14;;;;;;;12.33;4.70;;;;;;;4.18;44.53;99372.75;251993;1146;114153;-68
2021/03/08 16:35:17;;;;;;;15.03;3.97;;;;;;;4.08;44.34;99376.57;252272;1153;114853;-69
2021/03/08 16:40:19;;;;;;;12.97;4.33;;;;;;;3.99;44.63;99375.92;252172;1147;114736;-69
2021/03/08 16:45:22;;;;;;;12.07;4.63;;;;;;;3.94;44.73;99387.48;252182;1153;114546;-69
2021/03/08 16:50:25;;;;;;;9.05;4.05;;;;;;;3.90;44.77;99393.75;252217;1145;114703;-68
2021/03/08 16:55:27;;;;;;;16.10;4.47;;;;;;;3.85;45.18;99404.43;252219;1153;114339;-69
2021/03/08 17:00:38;;;;;;;8.05;3.55;;;;;;;3.81;44.61;99417.73;252202;1146;114471;-68
2021/03/08 17:05:41;;;;;;;10.30;3.93;;;;;;;3.75;45.20;99422.25;251989;1153;114262;-70
2021/03/08 17:10:44;;;;;;;8.37;4.03;;;;;;;3.70;44.78;99431.17;250401;1146;114172;-69
2021/03/08 17:15:47;;;;;;;11.95;4.60;;;;;;;3.59;45.01;99434.10;251202;1153;114427;-72
2021/03/08 17:20:49;;;;;;;15.13;5.37;;;;;;;3.52;44.76;99446.56;250750;1147;114362;-68
2021/03/08 17:25:51;;;;;;;16.27;5.67;;;;;;;3.49;44.79;99454.53;252262;1153;114148;-69
2021/03/08 17:30:54;;;;;;;10.67;4.93;;;;;;;3.48;44.97;99449.33;252045;1146;114695;-70
2021/03/08 17:35:57;;;;;;;15.25;6.93;;;;;;;3.46;44.90;99462.50;252270;1153;114727;-69
2021/03/08 17:41:00;;;;;;;20.00;8.07;;;;;;;3.43;45.04;99465.25;252067;1146;114082;-70
2021/03/08 17:46:02;;;;;;;24.70;10.30;;;;;;;3.43;44.89;99461.72;252110;1153;114451;-71
2021/03/08 17:51:05;;;;;;;20.75;10.05;;;;;;;3.40;45.11;99465.32;250700;1147;115307;-70
2021/03/08 17:56:07;;;;;;;22.07;9.73;;;;;;;3.36;45.00;99474.17;252351;1153;114601;-71
2021/03/08 18:01:10;;;;;;;17.60;8.95;;;;;;;3.32;44.82;99472.53;252155;1145;114075;-72
2021/03/08 18:06:15;;;;;;;21.70;9.55;;;;;;;3.30;45.24;99477.84;250280;1153;114384;-70
2021/03/08 18:11:18;;;;;;;23.70;9.60;;;;;;;3.25;45.27;99477.08;252002;1153;114634;-70
2021/03/08 18:16:21;;;;;;;21.30;9.17;;;;;;;3.15;45.67;99483.47;251010;1153;114937;-69
2021/03/08 18:21:23;;;;;;;16.17;8.17;;;;;;;3.05;45.59;99488.08;251962;1153;115020;-69
2021/03/08 18:26:25;;;;;;;18.68;8.60;;;;;;;2.98;45.86;99481.25;252184;1146;114625;-68
2021/03/08 18:31:28;;;;;;;19.68;8.90;;;;;;;2.88;46.51;99487.63;252256;1153;114091;-70
2021/03/08 18:36:30;;;;;;;20.63;8.50;;;;;;;2.81;46.33;99491.30;252185;1146;114453;-70
2021/03/08 18:41:34;;;;;;;23.20;9.18;;;;;;;2.75;46.80;99496.70;252473;1153;114054;-69
2021/03/08 18:46:36;;;;;;;22.53;9.50;;;;;;;2.66;46.76;99496.93;252456;1148;114052;-70
2021/03/08 18:51:39;;;;;;;22.90;9.87;;;;;;;2.60;46.77;99495.29;252283;1153;114440;-72
2021/03/08 18:56:41;;;;;;;25.08;11.50;;;;;;;2.60;46.97;99493.52;252115;1147;114446;-72
2021/03/08 19:01:44;;;;;;;25.70;12.65;;;;;;;2.64;46.68;99503.97;251845;1153;114778;-70
2021/03/08 19:06:46;;;;;;;23.80;11.65;;;;;;;2.68;46.85;99506.48;252238;1148;115130;-72
2021/03/08 19:11:48;;;;;;;30.78;13.60;;;;;;;2.74;47.17;99513.38;251901;1153;114725;-73
2021/03/08 19:16:51;;;;;;;31.47;14.57;;;;;;;2.79;47.27;99515.01;252199;1146;114171;-72
2021/03/08 19:21:54;;;;;;;29.13;13.77;;;;;;;2.86;46.89;99506.98;251689;1153;115378;-72
2021/03/08 19:26:57;;;;;;;35.15;15.90;;;;;;;2.89;46.74;99512.14;251602;1147;114304;-72
2021/03/08 19:31:59;;;;;;;36.73;15.60;;;;;;;2.88;46.69;99513.05;252012;1153;114248;-71
2021/03/08 19:37:02;;;;;;;34.08;14.65;;;;;;;2.85;46.75;99521.86;252219;1147;115208;-71
2021/03/08 19:42:05;;;;;;;38.77;16.23;;;;;;;2.83;46.79;99521.92;247373;1153;114590;-70
2021/03/08 19:47:08;;;;;;;41.38;18.03;;;;;;;2.76;46.66;99527.36;252191;1146;114662;-70
2021/03/08 19:52:11;;;;;;;51.65;20.35;;;;;;;2.67;47.45;99520.53;251292;1153;114752;-70
2021/03/08 19:57:13;;;;;;;54.20;22.25;;;;;;;2.58;47.95;99526.87;251208;1147;114644;-70
2021/03/08 20:02:17;;;;;;;57.87;24.43;;;;;;;2.53;47.53;99531.34;252158;1153;115062;-73
2021/03/08 20:07:20;;;;;;;65.10;28.37;;;;;;;2.51;47.50;99529.63;251888;1149;114699;-72
2021/03/08 20:12:22;;;;;;;72.00;31.10;;;;;;;2.50;47.66;99522.66;249678;1153;116480;-74
2021/03/08 20:17:24;;;;;;;74.67;32.20;;;;;;;2.52;47.57;99523.50;251227;1146;115432;-72
2021/03/08 20:22:28;;;;;;;72.37;32.13;;;;;;;2.53;47.83;99519.97;252140;1153;114651;-73
2021/03/08 20:27:30;;;;;;;65.78;28.98;;;;;;;2.56;47.66;99517.28;252109;1148;114804;-72
2021/03/08 20:32:32;;;;;;;61.07;24.97;;;;;;;2.58;47.58;99520.72;251956;1153;115273;-72
2021/03/08 20:37:37;;;;;;;62.33;26.43;;;;;;;2.60;47.67;99525.05;252114;1147;114660;-72
2021/03/08 20:42:39;;;;;;;60.85;24.65;;;;;;;2.60;47.28;99524.19;252144;1153;114904;-73
2021/03/08 20:47:45;;;;;;;61.50;24.90;;;;;;;2.61;47.72;99528.53;248090;1153;115485;-74
2021/03/08 20:52:47;;;;;;;66.78;31.05;;;;;;;2.62;47.81;99530.29;252135;1153;114791;-73
2021/03/08 20:57:51;;;;;;;127.10;60.07;;;;;;;2.59;47.91;99523.33;252155;1146;114635;-71
2021/03/08 21:02:53;;;;;;;65.73;28.78;;;;;;;2.60;48.02;99509.28;250394;1153;115979;-71
2021/03/08 21:07:56;;;;;;;63.25;26.85;;;;;;;2.58;48.21;99511.11;251956;1147;114643;-71
2021/03/08 21:12:59;;;;;;;64.43;25.33;;;;;;;2.56;48.42;99512.03;251707;1146;114755;-71
2021/03/08 21:18:01;;;;;;;58.20;25.10;;;;;;;2.53;47.92;99518.20;251915;1148;114727;-72
2021/03/08 21:23:03;;;;;;;76.70;32.10;;;;;;;2.50;48.23;99523.52;251863;1147;115636;-72
2021/03/08 21:28:06;;;;;;;75.80;32.80;;;;;;;2.46;48.21;99527.12;251635;1147;114827;-73
2021/03/08 21:33:09;;;;;;;75.10;33.55;;;;;;;2.44;48.63;99522.78;251912;1154;114809;-73
2021/03/08 21:38:12;;;;;;;81.10;33.70;;;;;;;2.36;48.10;99526.44;251642;1147;115460;-72
2021/03/08 21:43:14;;;;;;;75.97;32.80;;;;;;;2.26;48.84;99529.30;251673;1148;114578;-71
2021/03/08 21:48:17;;;;;;;67.85;30.15;;;;;;;2.18;48.49;99528.59;251875;1147;114743;-73
2021/03/08 21:53:20;;;;;;;72.88;31.45;;;;;;;2.05;48.83;99518.33;251935;1154;115274;-72
2021/03/08 21:58:24;;;;;;;70.70;30.75;;;;;;;1.97;48.58;99522.88;251280;1147;114727;-70
2021/03/08 22:03:27;;;;;;;77.60;31.63;;;;;;;1.92;48.91;99534.34;251998;1153;115252;-72
2021/03/08 22:08:29;;;;;;;73.68;32.60;;;;;;;1.92;49.21;99523.84;251754;1146;114766;-72
2021/03/08 22:13:31;;;;;;;78.78;33.33;;;;;;;1.91;49.48;99522.13;251817;1154;115012;-72
2021/03/08 22:18:38;;;;;;;79.45;33.85;;;;;;;1.84;49.10;99529.25;251814;1148;114718;-72
2021/03/08 22:23:40;;;;;;;83.10;33.37;;;;;;;1.83;49.36;99522.25;251944;1147;115632;-71
2021/03/08 22:28:42;;;;;;;86.03;34.20;;;;;;;1.83;49.37;99520.48;251834;1147;115410;-72
2021/03/08 22:33:45;;;;;;;82.13;34.50;;;;;;;1.81;49.29;99524.92;251883;1154;115008;-72
2021/03/08 22:38:48;;;;;;;77.87;33.07;;;;;;;1.80;49.45;99520.58;251739;1148;114927;-72
2021/03/08 22:43:50;;;;;;;81.83;34.13;;;;;;;1.80;49.20;99515.33;251675;1154;114966;-78
2021/03/08 22:49:04;;;;;;;74.40;30.80;;;;;;;1.75;49.26;99517.16;251834;1148;114854;-77
2021/03/08 22:54:08;;;;;;;72.80;31.70;;;;;;;1.71;49.51;99512.00;251940;1147;115685;-77
2021/03/08 22:59:10;;;;;;;75.25;29.18;;;;;;;1.64;49.24;99514.73;251651;1147;115302;-72
2021/03/08 23:04:12;;;;;;;61.48;26.20;;;;;;;1.64;49.50;99509.48;251849;1148;114754;-72
2021/03/08 23:09:15;;;;;;;65.85;28.45;;;;;;;1.62;49.35;99507.78;251956;1148;114730;-74
2021/03/08 23:14:18;;;;;;;69.60;30.30;;;;;;;1.59;49.60;99516.56;251711;1153;115118;-74
2021/03/08 23:19:25;;;;;;;66.57;30.10;;;;;;;1.56;49.84;99519.27;251677;1146;114791;-74
2021/03/08 23:24:27;;;;;;;75.75;33.05;;;;;;;1.55;50.41;99519.28;251754;1154;115214;-73